Terminal Aerodrome Forecast
Issued by NWS

Home | Current Version | Previous Version | Text Only | Print | Product List | Glossary On
Versions: 1 2 3 4 5 6 7 8 9 10 11 12 13 14 15 16 17 18 19 20 21 22 23 24
000
FTUS45 KBOU 162329
TAFBJC
TAF
KBJC 162329Z 1700/1724 06011KT P6SM VCSH SCT070 BKN100 OVC200
     FM170700 13007KT P6SM FEW050 SCT080 BKN120
     FM171000 31006KT P6SM FEW090 SCT120 BKN220
     FM171600 VRB05KT P6SM FEW100 SCT220
     FM172100 06007KT P6SM FEW140 SCT220=

USA.gov is the U.S. government's official web portal to all federal, state and local government web resources and services.